sensor_id;sensor_type;location;lat;lon;timestamp;temperature;humidity
46754;DHT22;32500;50.620;3.400;2022-08-01T00:00:39;25.70;56.50
46754;DHT22;32500;50.620;3.400;2022-08-01T00:03:05;25.70;56.50
46754;DHT22;32500;50.620;3.400;2022-08-01T00:05:31;25.70;56.50
46754;DHT22;32500;50.620;3.400;2022-08-01T00:07:57;25.70;57.00
46754;DHT22;32500;50.620;3.400;2022-08-01T00:10:22;25.70;56.50
46754;DHT22;32500;50.620;3.400;2022-08-01T00:12:48;25.70;56.50
46754;DHT22;32500;50.620;3.400;2022-08-01T00:15:15;25.70;56.60
46754;DHT22;32500;50.620;3.400;2022-08-01T00:17:42;25.70;56.60
46754;DHT22;32500;50.620;3.400;2022-08-01T00:20:11;25.70;56.50
46754;DHT22;32500;50.620;3.400;2022-08-01T00:22:37;25.70;56.60
46754;DHT22;32500;50.620;3.400;2022-08-01T00:25:04;25.70;56.60
46754;DHT22;32500;50.620;3.400;2022-08-01T00:27:31;25.60;56.40
46754;DHT22;32500;50.620;3.400;2022-08-01T00:29:57;25.70;56.40
46754;DHT22;32500;50.620;3.400;2022-08-01T00:32:23;25.70;56.40
46754;DHT22;32500;50.620;3.400;2022-08-01T00:34:49;25.70;56.40
46754;DHT22;32500;50.620;3.400;2022-08-01T00:37:14;25.70;56.40
46754;DHT22;32500;50.620;3.400;2022-08-01T00:39:40;25.60;56.40
46754;DHT22;32500;50.620;3.400;2022-08-01T00:42:07;25.60;56.50
46754;DHT22;32500;50.620;3.400;2022-08-01T00:44:34;25.60;56.40
46754;DHT22;32500;50.620;3.400;2022-08-01T00:46:59;25.70;56.50
46754;DHT22;32500;50.620;3.400;2022-08-01T00:49:25;25.60;56.40
46754;DHT22;32500;50.620;3.400;2022-08-01T00:51:51;25.70;56.40
46754;DHT22;32500;50.620;3.400;2022-08-01T00:54:16;25.60;56.40
46754;DHT22;32500;50.620;3.400;2022-08-01T00:56:42;25.60;56.30
46754;DHT22;32500;50.620;3.400;2022-08-01T00:59:09;25.60;56.50
46754;DHT22;32500;50.620;3.400;2022-08-01T01:01:36;25.60;56.50
46754;DHT22;32500;50.620;3.400;2022-08-01T01:04:02;25.60;56.40
46754;DHT22;32500;50.620;3.400;2022-08-01T01:07:02;25.60;56.50
46754;DHT22;32500;50.620;3.400;2022-08-01T01:09:42;25.60;56.60
46754;DHT22;32500;50.620;3.400;2022-08-01T01:12:21;25.60;56.50
46754;DHT22;32500;50.620;3.400;2022-08-01T01:17:28;25.60;56.50
46754;DHT22;32500;50.620;3.400;2022-08-01T01:19:57;25.60;56.60
46754;DHT22;32500;50.620;3.400;2022-08-01T01:22:46;25.60;56.50
46754;DHT22;32500;50.620;3.400;2022-08-01T01:30:55;25.60;56.60
46754;DHT22;32500;50.620;3.400;2022-08-01T01:33:23;25.60;56.60
46754;DHT22;32500;50.620;3.400;2022-08-01T01:35:53;25.60;56.60
46754;DHT22;32500;50.620;3.400;2022-08-01T01:38:29;25.60;56.60
46754;DHT22;32500;50.620;3.400;2022-08-01T01:40:57;25.60;56.50
46754;DHT22;32500;50.620;3.400;2022-08-01T01:43:24;25.60;56.60
46754;DHT22;32500;50.620;3.400;2022-08-01T01:45:52;25.60;56.60
46754;DHT22;32500;50.620;3.400;2022-08-01T01:48:20;25.60;56.60
46754;DHT22;32500;50.620;3.400;2022-08-01T01:50:47;25.60;56.60
46754;DHT22;32500;50.620;3.400;2022-08-01T01:53:16;25.60;56.60
46754;DHT22;32500;50.620;3.400;2022-08-01T01:55:45;25.60;56.60
46754;DHT22;32500;50.620;3.400;2022-08-01T01:58:13;25.60;56.60
46754;DHT22;32500;50.620;3.400;2022-08-01T02:00:40;25.60;56.50
46754;DHT22;32500;50.620;3.400;2022-08-01T02:03:07;25.60;56.60
46754;DHT22;32500;50.620;3.400;2022-08-01T02:05:35;25.60;56.70
46754;DHT22;32500;50.620;3.400;2022-08-01T02:08:03;25.60;56.60
46754;DHT22;32500;50.620;3.400;2022-08-01T02:10:31;25.50;56.60
46754;DHT22;32500;50.620;3.400;2022-08-01T02:13:02;25.60;56.60
46754;DHT22;32500;50.620;3.400;2022-08-01T02:15:30;25.60;56.60
46754;DHT22;32500;50.620;3.400;2022-08-01T02:17:57;25.60;56.60
46754;DHT22;32500;50.620;3.400;2022-08-01T02:20:24;25.60;56.70
46754;DHT22;32500;50.620;3.400;2022-08-01T02:23:08;25.60;56.60
46754;DHT22;32500;50.620;3.400;2022-08-01T02:25:42;25.60;56.60
46754;DHT22;32500;50.620;3.400;2022-08-01T02:28:25;25.50;56.60
46754;DHT22;32500;50.620;3.400;2022-08-01T02:30:56;25.50;56.70
46754;DHT22;32500;50.620;3.400;2022-08-01T02:33:33;25.50;56.70
46754;DHT22;32500;50.620;3.400;2022-08-01T02:36:01;25.50;56.60
46754;DHT22;32500;50.620;3.400;2022-08-01T02:38:31;25.50;56.70
46754;DHT22;32500;50.620;3.400;2022-08-01T02:41:00;25.50;56.60
46754;DHT22;32500;50.620;3.400;2022-08-01T02:43:29;25.50;56.60
46754;DHT22;32500;50.620;3.400;2022-08-01T02:46:00;25.60;56.70
46754;DHT22;32500;50.620;3.400;2022-08-01T02:48:27;25.50;56.70
46754;DHT22;32500;50.620;3.400;2022-08-01T02:50:55;25.50;56.70
46754;DHT22;32500;50.620;3.400;2022-08-01T02:53:24;25.50;56.70
46754;DHT22;32500;50.620;3.400;2022-08-01T02:55:51;25.50;56.70
46754;DHT22;32500;50.620;3.400;2022-08-01T02:58:19;25.50;56.70
46754;DHT22;32500;50.620;3.400;2022-08-01T03:00:47;25.50;56.70
46754;DHT22;32500;50.620;3.400;2022-08-01T03:03:14;25.50;56.60
46754;DHT22;32500;50.620;3.400;2022-08-01T03:05:41;25.50;56.70
46754;DHT22;32500;50.620;3.400;2022-08-01T03:08:09;25.50;56.80
46754;DHT22;32500;50.620;3.400;2022-08-01T03:10:39;25.50;56.60
46754;DHT22;32500;50.620;3.400;2022-08-01T03:13:07;25.50;56.60
46754;DHT22;32500;50.620;3.400;2022-08-01T03:15:36;25.50;56.80
46754;DHT22;32500;50.620;3.400;2022-08-01T03:18:04;25.50;56.90
46754;DHT22;32500;50.620;3.400;2022-08-01T03:20:33;25.40;56.80
46754;DHT22;32500;50.620;3.400;2022-08-01T03:23:06;25.40;56.80
46754;DHT22;32500;50.620;3.400;2022-08-01T03:25:33;25.50;56.70
46754;DHT22;32500;50.620;3.400;2022-08-01T03:28:03;25.50;56.70
46754;DHT22;32500;50.620;3.400;2022-08-01T03:30:31;25.50;56.80
46754;DHT22;32500;50.620;3.400;2022-08-01T03:32:58;25.40;56.80
46754;DHT22;32500;50.620;3.400;2022-08-01T03:35:26;25.50;56.80
46754;DHT22;32500;50.620;3.400;2022-08-01T03:37:55;25.40;56.80
46754;DHT22;32500;50.620;3.400;2022-08-01T03:40:25;25.40;56.80
46754;DHT22;32500;50.620;3.400;2022-08-01T03:43:07;25.40;56.80
46754;DHT22;32500;50.620;3.400;2022-08-01T03:45:36;25.40;56.80
46754;DHT22;32500;50.620;3.400;2022-08-01T03:48:09;25.40;56.80
46754;DHT22;32500;50.620;3.400;2022-08-01T03:50:37;25.40;56.80
46754;DHT22;32500;50.620;3.400;2022-08-01T03:53:05;25.40;56.80
46754;DHT22;32500;50.620;3.400;2022-08-01T03:55:33;25.50;56.80
46754;DHT22;32500;50.620;3.400;2022-08-01T03:58:00;25.40;56.80
46754;DHT22;32500;50.620;3.400;2022-08-01T04:00:27;25.40;56.80
46754;DHT22;32500;50.620;3.400;2022-08-01T04:02:53;25.40;56.90
46754;DHT22;32500;50.620;3.400;2022-08-01T04:05:19;25.50;56.90
46754;DHT22;32500;50.620;3.400;2022-08-01T04:07:48;25.40;56.80
46754;DHT22;32500;50.620;3.400;2022-08-01T04:10:24;25.40;57.00
46754;DHT22;32500;50.620;3.400;2022-08-01T04:12:50;25.40;57.00
46754;DHT22;32500;50.620;3.400;2022-08-01T04:15:16;25.40;57.00
46754;DHT22;32500;50.620;3.400;2022-08-01T04:17:42;25.40;57.10
46754;DHT22;32500;50.620;3.400;2022-08-01T04:20:08;25.40;57.00
46754;DHT22;32500;50.620;3.400;2022-08-01T04:22:34;25.40;57.10
46754;DHT22;32500;50.620;3.400;2022-08-01T04:25:01;25.40;57.00
46754;DHT22;32500;50.620;3.400;2022-08-01T04:27:31;25.40;57.00
46754;DHT22;32500;50.620;3.400;2022-08-01T04:29:58;25.40;57.10
46754;DHT22;32500;50.620;3.400;2022-08-01T04:32:27;25.40;57.10
46754;DHT22;32500;50.620;3.400;2022-08-01T04:34:56;25.40;57.10
46754;DHT22;32500;50.620;3.400;2022-08-01T04:37:23;25.40;57.00
46754;DHT22;32500;50.620;3.400;2022-08-01T04:39:52;25.40;57.10
46754;DHT22;32500;50.620;3.400;2022-08-01T04:42:19;25.40;57.20
46754;DHT22;32500;50.620;3.400;2022-08-01T04:44:45;25.30;57.10
46754;DHT22;32500;50.620;3.400;2022-08-01T04:47:11;25.40;57.20
46754;DHT22;32500;50.620;3.400;2022-08-01T04:49:39;25.40;57.20
46754;DHT22;32500;50.620;3.400;2022-08-01T04:52:04;25.40;57.10
46754;DHT22;32500;50.620;3.400;2022-08-01T04:54:32;25.30;57.20
46754;DHT22;32500;50.620;3.400;2022-08-01T04:56:59;25.30;57.10
46754;DHT22;32500;50.620;3.400;2022-08-01T04:59:33;25.40;57.30
46754;DHT22;32500;50.620;3.400;2022-08-01T05:02:18;25.40;57.20
46754;DHT22;32500;50.620;3.400;2022-08-01T05:04:45;25.30;57.20
46754;DHT22;32500;50.620;3.400;2022-08-01T05:07:12;25.30;57.20
46754;DHT22;32500;50.620;3.400;2022-08-01T05:09:38;25.30;57.40
46754;DHT22;32500;50.620;3.400;2022-08-01T05:12:05;25.30;57.50
46754;DHT22;32500;50.620;3.400;2022-08-01T05:14:31;25.30;57.60
46754;DHT22;32500;50.620;3.400;2022-08-01T05:17:01;25.20;57.60
46754;DHT22;32500;50.620;3.400;2022-08-01T05:19:33;25.30;57.80
46754;DHT22;32500;50.620;3.400;2022-08-01T05:22:00;25.20;57.70
46754;DHT22;32500;50.620;3.400;2022-08-01T05:24:31;25.20;58.00
46754;DHT22;32500;50.620;3.400;2022-08-01T05:26:57;25.30;58.00
46754;DHT22;32500;50.620;3.400;2022-08-01T05:29:24;25.20;58.00
46754;DHT22;32500;50.620;3.400;2022-08-01T05:31:50;25.30;58.40
46754;DHT22;32500;50.620;3.400;2022-08-01T05:34:17;25.30;59.90
46754;DHT22;32500;50.620;3.400;2022-08-01T05:36:43;24.90;63.80
46754;DHT22;32500;50.620;3.400;2022-08-01T05:39:08;24.60;64.20
46754;DHT22;32500;50.620;3.400;2022-08-01T05:41:35;24.70;64.10
46754;DHT22;32500;50.620;3.400;2022-08-01T05:44:02;24.70;64.10
46754;DHT22;32500;50.620;3.400;2022-08-01T05:46:28;24.70;64.60
46754;DHT22;32500;50.620;3.400;2022-08-01T05:48:56;24.70;64.70
46754;DHT22;32500;50.620;3.400;2022-08-01T05:51:22;24.60;64.60
46754;DHT22;32500;50.620;3.400;2022-08-01T05:53:48;24.70;64.50
46754;DHT22;32500;50.620;3.400;2022-08-01T05:56:13;24.70;64.50
46754;DHT22;32500;50.620;3.400;2022-08-01T05:58:41;24.70;64.30
46754;DHT22;32500;50.620;3.400;2022-08-01T06:01:07;24.60;64.30
46754;DHT22;32500;50.620;3.400;2022-08-01T06:03:32;24.50;64.30
46754;DHT22;32500;50.620;3.400;2022-08-01T06:06:00;24.50;64.60
46754;DHT22;32500;50.620;3.400;2022-08-01T06:08:26;24.50;64.90
46754;DHT22;32500;50.620;3.400;2022-08-01T06:10:52;24.40;65.00
46754;DHT22;32500;50.620;3.400;2022-08-01T06:13:19;24.40;65.10
46754;DHT22;32500;50.620;3.400;2022-08-01T06:15:46;24.40;65.50
46754;DHT22;32500;50.620;3.400;2022-08-01T06:18:12;24.40;65.50
46754;DHT22;32500;50.620;3.400;2022-08-01T06:20:37;24.30;65.70
46754;DHT22;32500;50.620;3.400;2022-08-01T06:23:03;24.20;65.80
46754;DHT22;32500;50.620;3.400;2022-08-01T06:25:29;24.20;65.80
46754;DHT22;32500;50.620;3.400;2022-08-01T06:27:55;24.10;66.50
46754;DHT22;32500;50.620;3.400;2022-08-01T06:30:20;24.00;67.00
46754;DHT22;32500;50.620;3.400;2022-08-01T06:32:46;24.00;67.00
46754;DHT22;32500;50.620;3.400;2022-08-01T06:35:13;24.00;67.20
46754;DHT22;32500;50.620;3.400;2022-08-01T06:37:39;24.00;67.10
46754;DHT22;32500;50.620;3.400;2022-08-01T06:40:07;23.90;67.40
46754;DHT22;32500;50.620;3.400;2022-08-01T06:42:33;23.90;67.30
46754;DHT22;32500;50.620;3.400;2022-08-01T06:45:07;23.90;67.40
46754;DHT22;32500;50.620;3.400;2022-08-01T06:47:33;23.90;67.50
46754;DHT22;32500;50.620;3.400;2022-08-01T06:49:59;24.00;67.50
46754;DHT22;32500;50.620;3.400;2022-08-01T06:52:25;23.90;67.20
46754;DHT22;32500;50.620;3.400;2022-08-01T06:54:51;24.00;67.00
46754;DHT22;32500;50.620;3.400;2022-08-01T06:57:17;24.00;67.30
46754;DHT22;32500;50.620;3.400;2022-08-01T06:59:43;24.00;67.40
46754;DHT22;32500;50.620;3.400;2022-08-01T07:02:08;24.00;68.00
46754;DHT22;32500;50.620;3.400;2022-08-01T07:04:34;24.10;67.80
46754;DHT22;32500;50.620;3.400;2022-08-01T07:07:00;24.10;67.70
46754;DHT22;32500;50.620;3.400;2022-08-01T07:09:26;24.00;68.00
46754;DHT22;32500;50.620;3.400;2022-08-01T07:11:52;24.00;67.50
46754;DHT22;32500;50.620;3.400;2022-08-01T07:14:18;24.10;67.50
46754;DHT22;32500;50.620;3.400;2022-08-01T07:16:44;24.10;67.30
46754;DHT22;32500;50.620;3.400;2022-08-01T07:19:10;24.20;67.10
46754;DHT22;32500;50.620;3.400;2022-08-01T07:21:36;24.30;67.10
46754;DHT22;32500;50.620;3.400;2022-08-01T07:24:01;24.20;67.20
46754;DHT22;32500;50.620;3.400;2022-08-01T07:26:27;24.20;67.40
46754;DHT22;32500;50.620;3.400;2022-08-01T07:28:53;24.10;67.60
46754;DHT22;32500;50.620;3.400;2022-08-01T07:31:19;24.10;68.00
46754;DHT22;32500;50.620;3.400;2022-08-01T07:33:45;24.00;68.00
46754;DHT22;32500;50.620;3.400;2022-08-01T07:36:11;24.00;68.90
46754;DHT22;32500;50.620;3.400;2022-08-01T07:38:36;24.00;68.60
46754;DHT22;32500;50.620;3.400;2022-08-01T07:41:02;24.10;67.90
46754;DHT22;32500;50.620;3.400;2022-08-01T07:43:28;24.20;67.50
46754;DHT22;32500;50.620;3.400;2022-08-01T07:45:54;24.20;66.50
46754;DHT22;32500;50.620;3.400;2022-08-01T07:48:20;24.10;67.00
46754;DHT22;32500;50.620;3.400;2022-08-01T07:50:49;24.20;66.60
46754;DHT22;32500;50.620;3.400;2022-08-01T07:53:15;24.40;66.50
46754;DHT22;32500;50.620;3.400;2022-08-01T07:55:41;24.40;65.60
46754;DHT22;32500;50.620;3.400;2022-08-01T07:58:07;24.40;64.70
46754;DHT22;32500;50.620;3.400;2022-08-01T08:00:34;24.30;64.60
46754;DHT22;32500;50.620;3.400;2022-08-01T08:02:59;24.30;65.00
46754;DHT22;32500;50.620;3.400;2022-08-01T08:05:28;24.40;66.10
46754;DHT22;32500;50.620;3.400;2022-08-01T08:07:54;24.40;65.50
46754;DHT22;32500;50.620;3.400;2022-08-01T08:10:19;24.40;64.70
46754;DHT22;32500;50.620;3.400;2022-08-01T08:12:45;24.30;64.70
46754;DHT22;32500;50.620;3.400;2022-08-01T08:15:12;24.40;63.70
46754;DHT22;32500;50.620;3.400;2022-08-01T08:17:38;24.40;63.90
46754;DHT22;32500;50.620;3.400;2022-08-01T08:20:09;24.40;63.90
46754;DHT22;32500;50.620;3.400;2022-08-01T08:22:34;24.40;63.50
46754;DHT22;32500;50.620;3.400;2022-08-01T08:25:00;24.50;63.80
46754;DHT22;32500;50.620;3.400;2022-08-01T08:27:26;24.50;63.20
46754;DHT22;32500;50.620;3.400;2022-08-01T08:29:52;24.70;63.30
46754;DHT22;32500;50.620;3.400;2022-08-01T08:32:17;24.70;62.10
46754;DHT22;32500;50.620;3.400;2022-08-01T08:34:43;24.70;61.40
46754;DHT22;32500;50.620;3.400;2022-08-01T08:37:09;24.60;61.20
46754;DHT22;32500;50.620;3.400;2022-08-01T08:39:35;24.70;61.20
46754;DHT22;32500;50.620;3.400;2022-08-01T08:42:04;24.70;61.30
46754;DHT22;32500;50.620;3.400;2022-08-01T08:44:31;24.70;60.90
46754;DHT22;32500;50.620;3.400;2022-08-01T08:46:58;24.80;61.00
46754;DHT22;32500;50.620;3.400;2022-08-01T08:49:28;24.80;61.00
46754;DHT22;32500;50.620;3.400;2022-08-01T08:51:58;24.90;60.90
46754;DHT22;32500;50.620;3.400;2022-08-01T08:54:24;24.90;60.10
46754;DHT22;32500;50.620;3.400;2022-08-01T08:56:54;24.80;58.90
46754;DHT22;32500;50.620;3.400;2022-08-01T08:59:20;24.80;59.30
46754;DHT22;32500;50.620;3.400;2022-08-01T09:01:47;24.80;58.90
46754;DHT22;32500;50.620;3.400;2022-08-01T09:04:13;24.80;58.60
46754;DHT22;32500;50.620;3.400;2022-08-01T09:06:40;24.80;58.70
46754;DHT22;32500;50.620;3.400;2022-08-01T09:09:07;24.90;58.40
46754;DHT22;32500;50.620;3.400;2022-08-01T09:11:34;24.90;59.10
46754;DHT22;32500;50.620;3.400;2022-08-01T09:14:17;24.90;58.80
46754;DHT22;32500;50.620;3.400;2022-08-01T09:17:08;25.00;57.70
46754;DHT22;32500;50.620;3.400;2022-08-01T09:19:47;24.80;59.10
46754;DHT22;32500;50.620;3.400;2022-08-01T09:22:18;24.90;58.00
46754;DHT22;32500;50.620;3.400;2022-08-01T09:25:05;25.00;58.40
46754;DHT22;32500;50.620;3.400;2022-08-01T09:27:31;25.00;58.10
46754;DHT22;32500;50.620;3.400;2022-08-01T09:30:11;25.00;58.50
46754;DHT22;32500;50.620;3.400;2022-08-01T09:35:27;25.00;58.10
46754;DHT22;32500;50.620;3.400;2022-08-01T09:38:22;25.20;57.40
46754;DHT22;32500;50.620;3.400;2022-08-01T09:40:49;25.20;58.20
46754;DHT22;32500;50.620;3.400;2022-08-01T09:43:16;25.20;57.70
46754;DHT22;32500;50.620;3.400;2022-08-01T09:45:41;25.20;57.90
46754;DHT22;32500;50.620;3.400;2022-08-01T09:48:08;25.20;57.60
46754;DHT22;32500;50.620;3.400;2022-08-01T09:50:44;25.20;58.10
46754;DHT22;32500;50.620;3.400;2022-08-01T09:53:11;25.30;58.30
46754;DHT22;32500;50.620;3.400;2022-08-01T09:55:38;25.30;58.10
46754;DHT22;32500;50.620;3.400;2022-08-01T09:58:04;25.30;57.60
46754;DHT22;32500;50.620;3.400;2022-08-01T10:00:31;25.30;57.40
46754;DHT22;32500;50.620;3.400;2022-08-01T10:02:58;25.40;57.10
46754;DHT22;32500;50.620;3.400;2022-08-01T10:05:34;25.40;57.00
46754;DHT22;32500;50.620;3.400;2022-08-01T10:08:04;25.30;57.10
46754;DHT22;32500;50.620;3.400;2022-08-01T10:10:31;25.30;57.30
46754;DHT22;32500;50.620;3.400;2022-08-01T10:12:58;25.30;57.60
46754;DHT22;32500;50.620;3.400;2022-08-01T10:15:26;25.30;57.70
46754;DHT22;32500;50.620;3.400;2022-08-01T10:17:57;25.40;58.00
46754;DHT22;32500;50.620;3.400;2022-08-01T10:20:30;25.30;58.00
46754;DHT22;32500;50.620;3.400;2022-08-01T10:22:59;25.40;58.20
46754;DHT22;32500;50.620;3.400;2022-08-01T10:25:27;25.40;58.20
46754;DHT22;32500;50.620;3.400;2022-08-01T10:27:54;25.40;58.20
46754;DHT22;32500;50.620;3.400;2022-08-01T10:30:21;25.40;58.20
46754;DHT22;32500;50.620;3.400;2022-08-01T10:32:48;25.40;58.20
46754;DHT22;32500;50.620;3.400;2022-08-01T10:35:14;25.40;58.20
46754;DHT22;32500;50.620;3.400;2022-08-01T10:37:44;25.40;58.20
46754;DHT22;32500;50.620;3.400;2022-08-01T10:40:14;25.50;58.20
46754;DHT22;32500;50.620;3.400;2022-08-01T10:42:44;25.50;58.20
46754;DHT22;32500;50.620;3.400;2022-08-01T10:45:14;25.40;58.10
46754;DHT22;32500;50.620;3.400;2022-08-01T10:50:46;25.50;58.20
46754;DHT22;32500;50.620;3.400;2022-08-01T10:53:22;25.50;58.20
46754;DHT22;32500;50.620;3.400;2022-08-01T10:56:08;25.60;58.10
46754;DHT22;32500;50.620;3.400;2022-08-01T10:58:38;25.60;58.00
46754;DHT22;32500;50.620;3.400;2022-08-01T11:01:26;25.60;57.90
46754;DHT22;32500;50.620;3.400;2022-08-01T11:12:00;25.60;58.00
46754;DHT22;32500;50.620;3.400;2022-08-01T11:14:27;25.60;58.70
46754;DHT22;32500;50.620;3.400;2022-08-01T11:16:53;25.60;58.10
46754;DHT22;32500;50.620;3.400;2022-08-01T11:19:19;25.60;58.10
46754;DHT22;32500;50.620;3.400;2022-08-01T11:27:21;25.60;58.10
46754;DHT22;32500;50.620;3.400;2022-08-01T11:32:57;25.60;58.00
46754;DHT22;32500;50.620;3.400;2022-08-01T11:35:24;25.70;58.00
46754;DHT22;32500;50.620;3.400;2022-08-01T11:37:52;25.70;57.90
46754;DHT22;32500;50.620;3.400;2022-08-01T11:40:26;25.70;57.90
46754;DHT22;32500;50.620;3.400;2022-08-01T11:45:51;25.70;57.90
46754;DHT22;32500;50.620;3.400;2022-08-01T11:48:19;25.70;58.00
46754;DHT22;32500;50.620;3.400;2022-08-01T11:50:46;25.80;57.90
46754;DHT22;32500;50.620;3.400;2022-08-01T11:53:12;25.80;57.90
46754;DHT22;32500;50.620;3.400;2022-08-01T11:55:45;25.80;58.00
46754;DHT22;32500;50.620;3.400;2022-08-01T11:58:12;26.00;58.10
46754;DHT22;32500;50.620;3.400;2022-08-01T12:00:38;26.10;58.00
46754;DHT22;32500;50.620;3.400;2022-08-01T12:03:06;26.20;56.70
46754;DHT22;32500;50.620;3.400;2022-08-01T12:05:34;26.20;55.50
46754;DHT22;32500;50.620;3.400;2022-08-01T12:08:01;26.30;55.20
46754;DHT22;32500;50.620;3.400;2022-08-01T12:10:29;26.40;55.30
46754;DHT22;32500;50.620;3.400;2022-08-01T12:13:04;26.50;55.50
46754;DHT22;32500;50.620;3.400;2022-08-01T12:15:36;26.50;55.50
46754;DHT22;32500;50.620;3.400;2022-08-01T12:18:04;26.50;54.70
46754;DHT22;32500;50.620;3.400;2022-08-01T12:20:35;26.50;52.40
46754;DHT22;32500;50.620;3.400;2022-08-01T12:23:04;26.40;53.50
46754;DHT22;32500;50.620;3.400;2022-08-01T12:25:35;26.50;53.70
46754;DHT22;32500;50.620;3.400;2022-08-01T12:28:06;26.50;53.40
46754;DHT22;32500;50.620;3.400;2022-08-01T12:30:33;26.50;53.40
46754;DHT22;32500;50.620;3.400;2022-08-01T12:33:03;26.60;53.30
46754;DHT22;32500;50.620;3.400;2022-08-01T12:35:31;26.70;53.30
46754;DHT22;32500;50.620;3.400;2022-08-01T12:37:59;26.70;52.80
46754;DHT22;32500;50.620;3.400;2022-08-01T12:40:28;26.60;53.00
46754;DHT22;32500;50.620;3.400;2022-08-01T12:42:55;26.70;53.10
46754;DHT22;32500;50.620;3.400;2022-08-01T12:47:51;26.80;53.20
46754;DHT22;32500;50.620;3.400;2022-08-01T12:50:22;26.70;52.90
46754;DHT22;32500;50.620;3.400;2022-08-01T12:52:50;26.60;53.60
46754;DHT22;32500;50.620;3.400;2022-08-01T12:55:19;26.70;54.00
46754;DHT22;32500;50.620;3.400;2022-08-01T13:00:46;26.70;53.40
46754;DHT22;32500;50.620;3.400;2022-08-01T13:03:14;26.70;53.30
46754;DHT22;32500;50.620;3.400;2022-08-01T13:05:51;26.80;52.00
46754;DHT22;32500;50.620;3.400;2022-08-01T13:08:18;26.70;52.80
46754;DHT22;32500;50.620;3.400;2022-08-01T13:10:45;26.60;54.20
46754;DHT22;32500;50.620;3.400;2022-08-01T13:13:12;26.60;53.30
46754;DHT22;32500;50.620;3.400;2022-08-01T13:15:40;26.70;52.60
46754;DHT22;32500;50.620;3.400;2022-08-01T13:18:29;26.70;52.00
46754;DHT22;32500;50.620;3.400;2022-08-01T13:21:09;26.70;51.60
46754;DHT22;32500;50.620;3.400;2022-08-01T13:23:36;26.70;52.10
46754;DHT22;32500;50.620;3.400;2022-08-01T13:26:02;26.80;51.40
46754;DHT22;32500;50.620;3.400;2022-08-01T13:28:28;26.80;51.50
46754;DHT22;32500;50.620;3.400;2022-08-01T13:31:05;26.80;52.20
46754;DHT22;32500;50.620;3.400;2022-08-01T13:33:46;26.70;53.10
46754;DHT22;32500;50.620;3.400;2022-08-01T13:36:12;26.70;53.20
46754;DHT22;32500;50.620;3.400;2022-08-01T13:38:39;26.80;52.20
46754;DHT22;32500;50.620;3.400;2022-08-01T13:41:23;26.90;51.60
46754;DHT22;32500;50.620;3.400;2022-08-01T13:43:49;26.80;51.60
46754;DHT22;32500;50.620;3.400;2022-08-01T13:46:14;26.90;52.20
46754;DHT22;32500;50.620;3.400;2022-08-01T13:48:40;26.90;51.40
46754;DHT22;32500;50.620;3.400;2022-08-01T13:51:06;26.90;51.50
46754;DHT22;32500;50.620;3.400;2022-08-01T13:53:31;27.00;50.60
46754;DHT22;32500;50.620;3.400;2022-08-01T13:55:57;26.90;50.50
46754;DHT22;32500;50.620;3.400;2022-08-01T13:58:23;26.90;50.50
46754;DHT22;32500;50.620;3.400;2022-08-01T14:00:49;27.00;50.80
46754;DHT22;32500;50.620;3.400;2022-08-01T14:03:14;26.80;51.10
46754;DHT22;32500;50.620;3.400;2022-08-01T14:05:42;26.90;49.90
46754;DHT22;32500;50.620;3.400;2022-08-01T14:08:08;26.80;51.20
46754;DHT22;32500;50.620;3.400;2022-08-01T14:10:34;26.80;52.10
46754;DHT22;32500;50.620;3.400;2022-08-01T14:13:00;26.90;49.90
46754;DHT22;32500;50.620;3.400;2022-08-01T14:15:25;26.90;50.90
46754;DHT22;32500;50.620;3.400;2022-08-01T14:17:51;26.90;50.30
46754;DHT22;32500;50.620;3.400;2022-08-01T14:20:17;26.80;51.60
46754;DHT22;32500;50.620;3.400;2022-08-01T14:22:46;27.00;51.70
46754;DHT22;32500;50.620;3.400;2022-08-01T14:25:12;26.80;52.10
46754;DHT22;32500;50.620;3.400;2022-08-01T14:27:37;26.80;52.80
46754;DHT22;32500;50.620;3.400;2022-08-01T14:30:06;26.80;52.20
46754;DHT22;32500;50.620;3.400;2022-08-01T14:32:32;26.80;52.20
46754;DHT22;32500;50.620;3.400;2022-08-01T14:34:59;26.80;51.20
46754;DHT22;32500;50.620;3.400;2022-08-01T14:37:25;26.80;52.40
46754;DHT22;32500;50.620;3.400;2022-08-01T14:39:50;26.80;53.00
46754;DHT22;32500;50.620;3.400;2022-08-01T14:42:16;26.80;52.60
46754;DHT22;32500;50.620;3.400;2022-08-01T14:44:42;26.90;53.00
46754;DHT22;32500;50.620;3.400;2022-08-01T14:47:07;26.90;52.20
46754;DHT22;32500;50.620;3.400;2022-08-01T14:49:33;26.80;52.90
46754;DHT22;32500;50.620;3.400;2022-08-01T14:51:59;26.80;52.50
46754;DHT22;32500;50.620;3.400;2022-08-01T14:54:24;26.90;51.40
46754;DHT22;32500;50.620;3.400;2022-08-01T14:56:50;26.90;50.60
46754;DHT22;32500;50.620;3.400;2022-08-01T14:59:18;27.00;50.40
46754;DHT22;32500;50.620;3.400;2022-08-01T15:01:44;27.10;49.80
46754;DHT22;32500;50.620;3.400;2022-08-01T15:04:09;27.00;49.80
46754;DHT22;32500;50.620;3.400;2022-08-01T15:06:35;26.90;50.50
46754;DHT22;32500;50.620;3.400;2022-08-01T15:09:01;26.80;51.80
46754;DHT22;32500;50.620;3.400;2022-08-01T15:11:27;26.80;52.50
46754;DHT22;32500;50.620;3.400;2022-08-01T15:13:52;26.90;51.00
46754;DHT22;32500;50.620;3.400;2022-08-01T15:16:37;26.90;51.30
46754;DHT22;32500;50.620;3.400;2022-08-01T15:19:03;26.90;51.70
46754;DHT22;32500;50.620;3.400;2022-08-01T15:21:29;26.90;51.00
46754;DHT22;32500;50.620;3.400;2022-08-01T15:23:54;26.90;50.80
46754;DHT22;32500;50.620;3.400;2022-08-01T15:26:20;27.00;49.50
46754;DHT22;32500;50.620;3.400;2022-08-01T15:28:46;26.90;51.40
46754;DHT22;32500;50.620;3.400;2022-08-01T15:31:12;26.80;52.40
46754;DHT22;32500;50.620;3.400;2022-08-01T15:33:38;26.80;51.80
46754;DHT22;32500;50.620;3.400;2022-08-01T15:36:04;26.80;52.80
46754;DHT22;32500;50.620;3.400;2022-08-01T15:38:29;26.80;51.50
46754;DHT22;32500;50.620;3.400;2022-08-01T15:40:55;26.90;50.80
46754;DHT22;32500;50.620;3.400;2022-08-01T15:43:21;26.80;51.80
46754;DHT22;32500;50.620;3.400;2022-08-01T15:45:47;26.70;52.40
46754;DHT22;32500;50.620;3.400;2022-08-01T15:48:12;26.70;52.90
46754;DHT22;32500;50.620;3.400;2022-08-01T15:50:38;26.80;53.10
46754;DHT22;32500;50.620;3.400;2022-08-01T15:53:04;26.80;53.30
46754;DHT22;32500;50.620;3.400;2022-08-01T15:55:31;26.80;53.30
46754;DHT22;32500;50.620;3.400;2022-08-01T15:57:56;26.80;53.40
46754;DHT22;32500;50.620;3.400;2022-08-01T16:00:22;26.80;53.60
46754;DHT22;32500;50.620;3.400;2022-08-01T16:02:48;26.90;53.70
46754;DHT22;32500;50.620;3.400;2022-08-01T16:05:13;26.80;53.70
46754;DHT22;32500;50.620;3.400;2022-08-01T16:07:39;26.90;53.80
46754;DHT22;32500;50.620;3.400;2022-08-01T16:10:05;26.90;53.90
46754;DHT22;32500;50.620;3.400;2022-08-01T16:12:31;26.90;54.00
46754;DHT22;32500;50.620;3.400;2022-08-01T16:14:57;26.90;54.00